createdAt,value
2023-03-29T00:01:06.697Z,11.50
2023-03-29T00:03:35.024Z,9.00
2023-03-29T00:06:04.170Z,8.30
2023-03-29T00:08:38.520Z,11.00
2023-03-29T00:11:07.691Z,9.70
2023-03-29T00:13:36.192Z,8.00
2023-03-29T00:16:04.436Z,7.60
2023-03-29T00:18:32.586Z,6.50
2023-03-29T00:21:01.560Z,6.30
2023-03-29T00:23:30.748Z,7.70
2023-03-29T00:25:58.803Z,6.00
2023-03-29T00:28:27.302Z,6.10
2023-03-29T00:31:05.727Z,6.20
2023-03-29T00:33:34.251Z,6.20
2023-03-29T00:36:04.586Z,6.50
2023-03-29T00:38:33.331Z,8.20
2023-03-29T00:41:02.093Z,7.00
2023-03-29T00:43:30.517Z,9.50
2023-03-29T00:45:58.558Z,8.90
2023-03-29T00:48:30.155Z,7.80
2023-03-29T00:51:04.195Z,8.80
2023-03-29T00:53:44.085Z,6.50
2023-03-29T00:56:16.900Z,7.80
2023-03-29T00:58:55.264Z,8.10
2023-03-29T01:01:50.511Z,7.40
2023-03-29T01:04:24.180Z,9.20
2023-03-29T01:07:18.844Z,6.90
2023-03-29T01:09:55.097Z,7.40
2023-03-29T01:12:32.840Z,7.50
2023-03-29T01:15:10.500Z,11.70
2023-03-29T01:17:40.667Z,7.10
2023-03-29T01:20:22.379Z,7.40
2023-03-29T01:23:05.374Z,8.90
2023-03-29T01:25:58.563Z,6.00
2023-03-29T01:28:36.380Z,6.70
2023-03-29T01:31:08.697Z,6.20
2023-03-29T01:36:21.011Z,7.90
2023-03-29T01:38:57.386Z,8.50
2023-03-29T01:41:39.873Z,6.50
2023-03-29T01:44:21.474Z,6.70
2023-03-29T01:46:59.969Z,8.60
2023-03-29T01:49:45.458Z,7.50
2023-03-29T01:52:34.872Z,6.80
2023-03-29T01:55:12.887Z,6.50
2023-03-29T01:57:46.881Z,7.00
2023-03-29T02:00:24.976Z,5.70
2023-03-29T02:03:00.175Z,6.20
2023-03-29T02:05:31.825Z,7.40
2023-03-29T02:08:01.735Z,6.30
2023-03-29T02:10:30.553Z,7.30
2023-03-29T02:12:58.737Z,8.40
2023-03-29T02:15:27.018Z,5.90
2023-03-29T02:17:57.051Z,9.40
2023-03-29T02:20:47.490Z,6.60
2023-03-29T02:23:21.373Z,5.10
2023-03-29T02:25:53.789Z,5.10
2023-03-29T02:28:27.513Z,5.70
2023-03-29T02:31:16.684Z,7.20
2023-03-29T02:34:08.766Z,5.80
2023-03-29T02:36:50.519Z,8.40
2023-03-29T02:39:20.372Z,7.70
2023-03-29T02:41:50.612Z,8.50
2023-03-29T02:44:22.619Z,6.90
2023-03-29T02:46:53.211Z,11.80
2023-03-29T02:49:21.509Z,17.60
2023-03-29T02:51:54.449Z,30.30
2023-03-29T02:54:30.034Z,49.30
2023-03-29T02:57:00.626Z,79.10
2023-03-29T02:59:30.151Z,38.20
2023-03-29T03:01:58.598Z,29.00
2023-03-29T03:04:28.149Z,16.10
2023-03-29T03:06:56.042Z,11.00
2023-03-29T03:09:24.328Z,9.00
2023-03-29T03:11:53.764Z,9.80
2023-03-29T03:14:22.982Z,9.40
2023-03-29T03:16:53.043Z,8.50
2023-03-29T03:19:21.591Z,10.10
2023-03-29T03:21:51.093Z,9.90
2023-03-29T03:24:19.081Z,8.60
2023-03-29T03:26:48.947Z,15.10
2023-03-29T03:29:19.742Z,26.20
2023-03-29T03:32:04.404Z,19.40
2023-03-29T03:34:52.854Z,27.10
2023-03-29T03:37:23.697Z,25.90
2023-03-29T03:39:57.929Z,42.70
2023-03-29T03:42:29.651Z,54.70
2023-03-29T03:44:58.767Z,43.60
2023-03-29T03:47:30.800Z,21.60
2023-03-29T03:50:07.003Z,16.80
2023-03-29T03:52:34.992Z,17.80
2023-03-29T03:55:03.249Z,11.70
2023-03-29T03:57:52.656Z,11.50
2023-03-29T04:00:21.496Z,13.80
2023-03-29T04:03:02.353Z,11.50
2023-03-29T04:05:30.785Z,9.40
2023-03-29T04:08:00.253Z,8.50
2023-03-29T04:10:56.179Z,8.90
2023-03-29T04:13:32.776Z,7.80
2023-03-29T04:16:21.778Z,6.60
2023-03-29T04:18:50.680Z,7.20
2023-03-29T04:21:21.171Z,10.00
2023-03-29T04:23:49.808Z,8.50
2023-03-29T04:26:18.886Z,7.70
2023-03-29T04:28:49.693Z,9.10
2023-03-29T04:31:26.154Z,11.90
2023-03-29T04:34:27.148Z,12.70
2023-03-29T04:36:56.491Z,16.30
2023-03-29T04:39:33.190Z,11.60
2023-03-29T04:42:04.076Z,17.70
2023-03-29T04:44:34.131Z,13.10
2023-03-29T04:49:49.729Z,16.20
2023-03-29T04:52:27.389Z,12.70
2023-03-29T04:54:56.830Z,11.40
2023-03-29T04:57:47.028Z,10.40
2023-03-29T05:01:07.088Z,10.00
2023-03-29T05:03:44.051Z,14.00
2023-03-29T05:06:19.958Z,11.10
2023-03-29T05:08:47.925Z,11.50
2023-03-29T05:11:42.113Z,12.90
2023-03-29T05:14:10.523Z,11.20
2023-03-29T05:16:38.677Z,15.50
2023-03-29T05:19:07.171Z,14.80
2023-03-29T05:21:37.807Z,11.20
2023-03-29T05:26:59.136Z,11.60
2023-03-29T05:29:28.647Z,10.50
2023-03-29T05:32:07.204Z,16.90
2023-03-29T05:34:36.528Z,11.10
2023-03-29T05:37:04.578Z,11.50
2023-03-29T05:39:44.060Z,20.30
2023-03-29T05:42:13.708Z,12.10
2023-03-29T05:44:54.738Z,13.00
2023-03-29T05:47:23.123Z,14.70
2023-03-29T05:49:51.746Z,16.70
2023-03-29T05:52:24.006Z,20.90
2023-03-29T05:54:52.364Z,51.10
2023-03-29T05:57:22.222Z,17.70
2023-03-29T05:59:50.344Z,15.60
2023-03-29T06:02:19.074Z,12.60
2023-03-29T06:04:51.981Z,17.10
2023-03-29T06:07:25.875Z,7.60
2023-03-29T06:10:24.887Z,6.40
2023-03-29T06:12:57.208Z,8.40
2023-03-29T06:15:25.682Z,9.30
2023-03-29T06:18:02.512Z,8.40
2023-03-29T06:20:31.071Z,6.20
2023-03-29T06:23:03.783Z,7.40
2023-03-29T06:25:32.015Z,5.20
2023-03-29T06:28:01.167Z,6.70
2023-03-29T06:30:29.229Z,8.90
2023-03-29T06:33:01.073Z,5.10
2023-03-29T06:35:46.559Z,8.30
2023-03-29T06:38:17.451Z,5.30
2023-03-29T06:41:06.059Z,4.10
2023-03-29T06:43:50.696Z,6.10
2023-03-29T06:46:19.056Z,6.70
2023-03-29T06:48:57.814Z,5.30
2023-03-29T06:51:31.279Z,5.10
2023-03-29T06:54:00.049Z,5.80
2023-03-29T06:56:30.000Z,9.50
2023-03-29T06:59:03.592Z,5.90
2023-03-29T07:01:35.067Z,3.90
2023-03-29T07:04:15.937Z,5.20
2023-03-29T07:07:22.633Z,5.10
2023-03-29T07:09:58.698Z,6.30
2023-03-29T07:12:46.345Z,6.40
2023-03-29T07:15:16.160Z,7.20
2023-03-29T07:18:04.936Z,8.10
2023-03-29T07:20:34.098Z,7.30
2023-03-29T07:23:11.507Z,5.30
2023-03-29T07:25:41.182Z,8.50
2023-03-29T07:28:09.313Z,8.80
2023-03-29T07:30:37.528Z,8.70
2023-03-29T07:33:14.577Z,9.10
2023-03-29T07:36:05.152Z,9.70
2023-03-29T07:38:33.365Z,5.00
2023-03-29T07:41:08.824Z,4.60
2023-03-29T07:43:52.071Z,7.50
2023-03-29T07:46:25.216Z,11.10
2023-03-29T07:48:53.522Z,10.80
2023-03-29T07:51:21.573Z,8.20
2023-03-29T07:53:50.666Z,5.70
2023-03-29T07:56:44.802Z,6.50
2023-03-29T07:59:18.532Z,9.30
2023-03-29T08:01:52.104Z,6.20
2023-03-29T08:04:30.418Z,6.50
2023-03-29T08:07:25.039Z,7.00
2023-03-29T08:09:56.010Z,7.00
2023-03-29T08:12:31.199Z,8.00
2023-03-29T08:15:00.110Z,6.10
2023-03-29T08:17:33.271Z,6.70
2023-03-29T08:20:01.336Z,7.00
2023-03-29T08:22:29.524Z,5.20
2023-03-29T08:25:09.661Z,8.20
2023-03-29T08:27:43.408Z,7.80
2023-03-29T08:30:12.463Z,9.50
2023-03-29T08:32:41.847Z,6.80
2023-03-29T08:35:10.673Z,7.20
2023-03-29T08:37:52.759Z,8.60
2023-03-29T08:40:24.758Z,8.00
2023-03-29T08:43:19.245Z,5.00
2023-03-29T08:46:37.473Z,8.70
2023-03-29T08:49:19.896Z,9.00
2023-03-29T08:51:55.826Z,6.40
2023-03-29T08:54:27.425Z,7.80
2023-03-29T08:57:23.115Z,6.80
2023-03-29T08:59:59.108Z,7.20
2023-03-29T09:02:31.775Z,6.30
2023-03-29T09:05:21.048Z,5.70
2023-03-29T09:08:13.462Z,10.90
2023-03-29T09:11:20.769Z,9.00
2023-03-29T09:14:01.167Z,8.30
2023-03-29T09:17:02.312Z,12.20
2023-03-29T09:19:48.452Z,6.60
2023-03-29T09:22:38.441Z,14.20
2023-03-29T09:25:24.217Z,5.30
2023-03-29T09:28:04.916Z,5.50
2023-03-29T09:30:55.468Z,5.50
2023-03-29T09:33:28.379Z,6.90
2023-03-29T09:36:11.957Z,6.90
2023-03-29T09:38:46.493Z,5.20
2023-03-29T09:41:37.445Z,9.40
2023-03-29T09:44:24.227Z,6.00
2023-03-29T09:47:27.547Z,9.50
2023-03-29T09:50:30.874Z,6.40
2023-03-29T09:53:01.822Z,9.20
2023-03-29T09:55:33.940Z,5.40
2023-03-29T09:58:13.053Z,5.10
2023-03-29T10:00:45.323Z,8.20
2023-03-29T10:03:23.121Z,9.10
2023-03-29T10:05:59.928Z,8.50
2023-03-29T10:08:38.746Z,6.10
2023-03-29T10:11:13.566Z,5.50
2023-03-29T10:13:49.368Z,9.90
2023-03-29T10:16:21.262Z,7.40
2023-03-29T10:18:54.633Z,7.10
2023-03-29T10:21:23.929Z,9.80
2023-03-29T10:23:59.322Z,4.70
2023-03-29T10:26:33.160Z,6.00
2023-03-29T10:29:06.231Z,8.10
2023-03-29T10:31:38.208Z,7.30
2023-03-29T10:34:08.253Z,10.20
2023-03-29T10:36:40.283Z,9.00
2023-03-29T10:39:10.823Z,6.90
2023-03-29T10:41:39.066Z,8.00
2023-03-29T10:44:32.326Z,9.40
2023-03-29T10:47:09.005Z,11.40
2023-03-29T10:49:47.684Z,5.90
2023-03-29T10:52:17.808Z,10.00
2023-03-29T10:54:47.417Z,5.10
2023-03-29T10:57:42.522Z,5.40
2023-03-29T11:00:29.157Z,6.80
2023-03-29T11:03:09.795Z,6.90
2023-03-29T11:05:50.507Z,3.90
2023-03-29T11:08:33.425Z,8.70
2023-03-29T11:11:41.271Z,5.90
2023-03-29T11:14:30.851Z,5.50
2023-03-29T11:17:07.937Z,6.40
2023-03-29T11:19:55.407Z,6.10
2023-03-29T11:22:25.620Z,5.50
2023-03-29T11:25:21.133Z,6.40
2023-03-29T11:28:14.231Z,7.40
2023-03-29T11:31:14.867Z,7.50
2023-03-29T11:34:04.205Z,6.70
2023-03-29T11:36:53.932Z,4.60
2023-03-29T11:39:24.889Z,7.00
2023-03-29T11:44:31.505Z,3.60
2023-03-29T11:47:09.975Z,5.20
2023-03-29T11:49:56.434Z,11.10
2023-03-29T11:52:30.336Z,8.30
2023-03-29T11:55:03.972Z,9.10
2023-03-29T11:57:43.630Z,9.00
2023-03-29T12:00:30.651Z,6.30
2023-03-29T12:03:03.297Z,4.20
2023-03-29T12:05:39.943Z,7.40
2023-03-29T12:08:13.566Z,4.50
2023-03-29T12:10:48.264Z,3.70
2023-03-29T12:13:26.625Z,3.90
2023-03-29T12:16:03.980Z,5.60
2023-03-29T12:18:45.589Z,3.90
2023-03-29T12:21:19.456Z,5.20
2023-03-29T12:23:48.990Z,7.60
2023-03-29T12:26:27.389Z,7.10
2023-03-29T12:29:32.983Z,6.30
2023-03-29T12:32:03.978Z,8.30
2023-03-29T12:35:18.164Z,14.90
2023-03-29T12:38:32.562Z,4.10
2023-03-29T12:41:22.629Z,3.80
2023-03-29T12:44:14.614Z,3.50
2023-03-29T12:47:00.268Z,6.80
2023-03-29T12:49:38.314Z,2.60
2023-03-29T12:52:27.124Z,24.20
2023-03-29T12:55:00.619Z,11.40
2023-03-29T12:57:41.170Z,6.00
2023-03-29T13:00:23.810Z,6.90
2023-03-29T13:03:25.376Z,4.30
2023-03-29T13:06:05.439Z,7.10
2023-03-29T13:08:42.845Z,5.50
2023-03-29T13:11:34.430Z,5.60
2023-03-29T13:14:10.660Z,3.50
2023-03-29T13:16:41.230Z,3.70
2023-03-29T13:19:21.366Z,3.40
2023-03-29T13:21:49.365Z,6.30
2023-03-29T13:24:26.368Z,8.00
2023-03-29T13:27:49.839Z,7.70
2023-03-29T13:30:26.790Z,7.70
2023-03-29T13:32:57.629Z,4.10
2023-03-29T13:38:15.409Z,6.30
2023-03-29T13:40:54.205Z,7.60
2023-03-29T13:43:34.331Z,18.80
2023-03-29T13:46:03.677Z,6.30
2023-03-29T13:48:34.969Z,12.00
2023-03-29T13:53:50.024Z,4.70
2023-03-29T13:56:25.345Z,5.50
2023-03-29T13:59:12.097Z,6.30
2023-03-29T14:01:47.996Z,4.70
2023-03-29T14:04:26.727Z,7.10
2023-03-29T14:06:57.078Z,7.60
2023-03-29T14:09:31.926Z,8.30
2023-03-29T14:12:01.224Z,7.30
2023-03-29T14:14:32.765Z,6.20
2023-03-29T14:17:01.717Z,6.50
2023-03-29T14:19:32.125Z,4.00
2023-03-29T14:22:02.427Z,5.80
2023-03-29T14:24:48.190Z,5.70
2023-03-29T14:27:17.764Z,8.70
2023-03-29T14:29:48.203Z,10.80
2023-03-29T14:32:19.372Z,4.80
2023-03-29T14:34:49.197Z,7.40
2023-03-29T14:37:26.751Z,8.00
2023-03-29T14:39:56.632Z,9.10
2023-03-29T14:42:29.749Z,7.80
2023-03-29T14:45:04.436Z,9.60
2023-03-29T14:47:34.193Z,7.60
2023-03-29T14:50:03.964Z,9.10
2023-03-29T14:52:32.582Z,9.40
2023-03-29T14:55:02.366Z,3.20
2023-03-29T14:57:36.926Z,4.60
2023-03-29T15:00:30.311Z,4.90
2023-03-29T15:02:58.687Z,6.70
2023-03-29T15:05:50.339Z,18.20
2023-03-29T15:08:27.600Z,33.50
2023-03-29T15:10:55.747Z,16.90
2023-03-29T15:13:25.348Z,13.30
2023-03-29T15:16:00.817Z,7.70
2023-03-29T15:18:36.445Z,5.40
2023-03-29T15:21:05.546Z,6.30
2023-03-29T15:23:57.237Z,16.60
2023-03-29T15:26:26.839Z,16.60
2023-03-29T15:29:03.199Z,14.90
2023-03-29T15:31:37.072Z,5.80
2023-03-29T15:34:09.492Z,5.90
2023-03-29T15:36:43.466Z,8.40
2023-03-29T15:39:16.180Z,9.90
2023-03-29T15:41:47.896Z,12.60
2023-03-29T15:44:20.251Z,8.20
2023-03-29T15:46:48.392Z,5.70
2023-03-29T15:49:16.640Z,9.00
2023-03-29T15:51:44.572Z,6.20
2023-03-29T15:54:12.645Z,5.70
2023-03-29T15:56:51.386Z,6.50
2023-03-29T15:59:19.874Z,9.10
2023-03-29T16:01:49.729Z,6.90
2023-03-29T16:04:21.121Z,6.70
2023-03-29T16:09:19.679Z,8.60
2023-03-29T16:11:49.269Z,7.00
2023-03-29T16:14:27.396Z,8.80
2023-03-29T16:16:57.419Z,8.50
2023-03-29T16:19:27.218Z,9.90
2023-03-29T16:21:56.795Z,9.00
2023-03-29T16:24:31.785Z,17.10
2023-03-29T16:27:04.497Z,10.40
2023-03-29T16:29:32.502Z,12.40
2023-03-29T16:32:05.363Z,11.60
2023-03-29T16:34:36.081Z,11.10
2023-03-29T16:37:04.195Z,12.00
2023-03-29T16:39:32.222Z,11.00
2023-03-29T16:42:00.302Z,13.00
2023-03-29T16:44:28.323Z,12.50
2023-03-29T16:46:58.456Z,18.30
2023-03-29T16:49:26.660Z,18.70
2023-03-29T16:51:55.196Z,22.70
2023-03-29T16:54:25.930Z,29.80
2023-03-29T16:56:57.811Z,36.40
2023-03-29T16:59:26.419Z,36.60
2023-03-29T17:01:56.058Z,25.60
2023-03-29T17:04:24.286Z,17.00
2023-03-29T17:06:53.647Z,25.90
2023-03-29T17:09:22.012Z,23.70
2023-03-29T17:11:50.143Z,22.00
2023-03-29T17:14:18.365Z,18.30
2023-03-29T17:16:46.533Z,21.10
2023-03-29T17:19:14.466Z,16.20
2023-03-29T17:21:42.529Z,18.10
2023-03-29T17:24:10.649Z,18.90
2023-03-29T17:26:38.694Z,22.10
2023-03-29T17:29:10.382Z,20.20
2023-03-29T17:31:47.006Z,33.00
2023-03-29T17:34:17.442Z,47.40
2023-03-29T17:36:45.855Z,61.80
2023-03-29T17:39:15.541Z,69.40
2023-03-29T17:41:43.872Z,69.20
2023-03-29T17:44:12.265Z,60.70
2023-03-29T17:46:40.446Z,68.50
2023-03-29T17:49:08.472Z,62.70
2023-03-29T17:51:36.562Z,52.60
2023-03-29T17:54:04.596Z,50.60
2023-03-29T17:56:32.734Z,81.00
2023-03-29T17:59:00.887Z,97.70
2023-03-29T18:01:29.394Z,93.00
2023-03-29T18:03:57.644Z,69.40
2023-03-29T18:06:26.007Z,66.10
2023-03-29T18:08:55.201Z,43.60
2023-03-29T18:11:26.431Z,35.40
2023-03-29T18:13:59.724Z,36.30
2023-03-29T18:16:31.803Z,35.10
2023-03-29T18:19:11.105Z,37.30
2023-03-29T18:21:39.895Z,43.50
2023-03-29T18:24:08.087Z,39.90
2023-03-29T18:26:36.550Z,36.40
2023-03-29T18:29:04.837Z,30.80
2023-03-29T18:31:33.126Z,29.80
2023-03-29T18:34:07.427Z,34.30
2023-03-29T18:36:35.942Z,37.50
2023-03-29T18:39:07.812Z,34.00
2023-03-29T18:41:42.514Z,37.60
2023-03-29T18:44:13.405Z,33.70
2023-03-29T18:46:41.406Z,32.60
2023-03-29T18:49:10.244Z,40.70
2023-03-29T18:51:39.528Z,62.60
2023-03-29T18:54:08.992Z,64.50
2023-03-29T18:56:36.998Z,63.20
2023-03-29T18:59:06.608Z,62.40
2023-03-29T19:01:34.991Z,52.60
2023-03-29T19:04:03.603Z,40.80
2023-03-29T19:06:36.557Z,41.30
2023-03-29T19:09:05.441Z,35.50
2023-03-29T19:11:34.525Z,34.60
2023-03-29T19:14:04.881Z,38.40
2023-03-29T19:16:33.058Z,35.00
2023-03-29T19:19:01.664Z,53.90
2023-03-29T19:21:31.746Z,69.30
2023-03-29T19:24:01.011Z,32.60
2023-03-29T19:26:33.437Z,28.80
2023-03-29T19:29:01.822Z,23.30
2023-03-29T19:31:30.418Z,27.00
2023-03-29T19:33:59.922Z,28.80
2023-03-29T19:36:28.451Z,24.10
2023-03-29T19:38:57.469Z,27.00
2023-03-29T19:41:27.025Z,27.20
2023-03-29T19:43:59.440Z,31.40
2023-03-29T19:46:29.058Z,35.30
2023-03-29T19:48:59.829Z,38.50
2023-03-29T19:51:29.165Z,38.80
2023-03-29T19:53:57.496Z,39.80
2023-03-29T19:56:26.607Z,34.00
2023-03-29T19:58:54.697Z,27.30
2023-03-29T20:01:22.812Z,27.00
2023-03-29T20:03:51.047Z,19.40
2023-03-29T20:06:21.567Z,20.90
2023-03-29T20:08:49.915Z,19.20
2023-03-29T20:11:19.956Z,16.10
2023-03-29T20:13:47.902Z,19.80
2023-03-29T20:16:18.351Z,19.90
2023-03-29T20:18:46.523Z,19.90
2023-03-29T20:21:16.793Z,21.10
2023-03-29T20:23:45.865Z,20.20
2023-03-29T20:26:14.317Z,17.90
2023-03-29T20:28:42.735Z,21.80
2023-03-29T20:31:11.155Z,15.00
2023-03-29T20:33:39.859Z,14.20
2023-03-29T20:36:08.727Z,13.60
2023-03-29T20:38:37.619Z,13.20
2023-03-29T20:41:08.976Z,15.10
2023-03-29T20:43:41.331Z,15.30
2023-03-29T20:46:14.702Z,20.70
2023-03-29T20:48:53.423Z,18.20
2023-03-29T20:51:30.846Z,17.70
2023-03-29T20:54:04.759Z,16.10
2023-03-29T20:56:34.826Z,18.30
2023-03-29T20:59:04.079Z,19.40
2023-03-29T21:01:35.070Z,22.40
2023-03-29T21:06:31.661Z,17.50
2023-03-29T21:08:59.521Z,19.80
2023-03-29T21:11:27.572Z,23.30
2023-03-29T21:13:55.504Z,20.30
2023-03-29T21:16:25.331Z,20.70
2023-03-29T21:18:53.651Z,19.30
2023-03-29T21:21:22.933Z,21.60
2023-03-29T21:23:50.936Z,21.50
2023-03-29T21:26:19.040Z,20.30
2023-03-29T21:28:48.713Z,19.60
2023-03-29T21:31:16.979Z,23.20
2023-03-29T21:33:45.369Z,27.50
2023-03-29T21:36:13.394Z,30.50
2023-03-29T21:38:41.407Z,36.50
2023-03-29T21:41:12.044Z,31.00
2023-03-29T21:43:40.218Z,30.00
2023-03-29T21:46:08.772Z,17.50
2023-03-29T21:48:37.256Z,19.40
2023-03-29T21:51:06.486Z,27.60
2023-03-29T21:53:35.314Z,29.40
2023-03-29T21:56:03.677Z,30.60
2023-03-29T21:58:31.692Z,34.30
2023-03-29T22:01:03.748Z,29.90
2023-03-29T22:03:31.845Z,25.50
2023-03-29T22:06:02.677Z,21.90
2023-03-29T22:08:31.462Z,23.80
2023-03-29T22:11:09.500Z,27.10
2023-03-29T22:13:39.016Z,22.70
2023-03-29T22:16:08.349Z,22.30
2023-03-29T22:18:44.430Z,17.60
2023-03-29T22:21:15.538Z,15.40
2023-03-29T22:23:45.423Z,18.80
2023-03-29T22:26:16.179Z,21.30
2023-03-29T22:28:44.523Z,17.10
2023-03-29T22:31:15.575Z,21.40
2023-03-29T22:36:18.126Z,18.30
2023-03-29T22:38:46.868Z,16.60
2023-03-29T22:41:16.103Z,17.00
2023-03-29T22:43:44.589Z,17.80
2023-03-29T22:46:14.063Z,21.60
2023-03-29T22:48:42.216Z,15.80
2023-03-29T22:51:10.633Z,17.70
2023-03-29T22:53:38.492Z,15.50
2023-03-29T22:56:08.005Z,18.40
2023-03-29T22:58:37.514Z,22.00
2023-03-29T23:01:07.425Z,18.20
2023-03-29T23:03:36.124Z,15.20
2023-03-29T23:06:04.502Z,14.20
2023-03-29T23:08:34.249Z,15.60
2023-03-29T23:11:04.688Z,15.10
2023-03-29T23:13:33.747Z,20.40
2023-03-29T23:16:04.581Z,15.60
2023-03-29T23:18:35.027Z,16.60
2023-03-29T23:21:06.090Z,14.50
2023-03-29T23:23:35.465Z,14.30
2023-03-29T23:26:04.036Z,20.30
2023-03-29T23:28:34.707Z,26.20
2023-03-29T23:31:11.772Z,23.20
2023-03-29T23:33:41.728Z,20.40
2023-03-29T23:36:18.444Z,20.70
2023-03-29T23:38:47.985Z,30.20
2023-03-29T23:41:17.713Z,27.80
2023-03-29T23:43:47.308Z,30.60
2023-03-29T23:46:17.494Z,27.30
2023-03-29T23:48:50.834Z,23.20
2023-03-29T23:51:23.200Z,22.40
2023-03-29T23:53:51.871Z,21.00
2023-03-29T23:56:21.623Z,25.00
2023-03-29T23:58:49.971Z,25.10
